createdAt,value
2023-01-09T00:03:14.845Z,22.40
2023-01-09T00:08:14.799Z,23.30
2023-01-09T00:13:14.695Z,23.30
2023-01-09T00:18:14.669Z,23.90
2023-01-09T00:23:14.574Z,23.30
2023-01-09T00:28:14.541Z,24.30
2023-01-09T00:33:14.441Z,21.80
2023-01-09T00:38:14.387Z,23.40
2023-01-09T00:43:14.317Z,23.90
2023-01-09T00:48:14.240Z,25.90
2023-01-09T00:53:14.185Z,26.50
2023-01-09T00:58:14.159Z,26.60
2023-01-09T01:03:14.051Z,27.00
2023-01-09T01:08:13.969Z,24.70
2023-01-09T01:13:13.923Z,25.20
2023-01-09T01:18:13.851Z,24.70
2023-01-09T01:23:13.754Z,24.60
2023-01-09T01:28:13.754Z,27.80
2023-01-09T01:33:13.637Z,25.50
2023-01-09T01:38:13.604Z,24.00
2023-01-09T01:43:13.525Z,24.70
2023-01-09T01:48:13.464Z,25.80
2023-01-09T01:53:13.433Z,23.40
2023-01-09T01:58:13.370Z,25.10
2023-01-09T02:03:13.251Z,23.90
2023-01-09T02:08:13.203Z,23.20
2023-01-09T02:13:13.125Z,22.40
2023-01-09T02:18:13.082Z,23.20
2023-01-09T02:23:12.989Z,24.30
2023-01-09T02:28:12.954Z,22.40
2023-01-09T02:33:12.846Z,24.80
2023-01-09T02:38:12.797Z,22.60
2023-01-09T02:43:12.800Z,23.50
2023-01-09T02:48:12.696Z,20.90
2023-01-09T02:53:12.605Z,23.70
2023-01-09T02:58:12.524Z,23.10
2023-01-09T03:03:12.538Z,20.10
2023-01-09T03:08:12.380Z,20.80
2023-01-09T03:13:12.322Z,22.90
2023-01-09T03:18:12.270Z,24.00
2023-01-09T03:23:12.244Z,25.30
2023-01-09T03:28:12.113Z,24.30
2023-01-09T03:33:12.080Z,24.60
2023-01-09T03:38:12.022Z,26.40
2023-01-09T03:43:11.971Z,26.70
2023-01-09T03:48:11.904Z,26.20
2023-01-09T03:53:11.824Z,26.10
2023-01-09T03:58:11.827Z,24.10
2023-01-09T04:03:11.736Z,24.00
2023-01-09T04:08:11.620Z,23.70
2023-01-09T04:13:11.609Z,23.00
2023-01-09T04:18:11.496Z,21.70
2023-01-09T04:23:11.451Z,23.20
2023-01-09T04:28:11.373Z,23.40
2023-01-09T04:33:11.287Z,21.80
2023-01-09T04:38:11.205Z,22.00
2023-01-09T04:43:11.180Z,22.10
2023-01-09T04:48:11.114Z,21.70
2023-01-09T04:53:11.016Z,22.40
2023-01-09T04:58:10.973Z,20.20
2023-01-09T05:03:10.905Z,23.60
2023-01-09T05:08:10.871Z,22.20
2023-01-09T05:13:10.782Z,21.50
2023-01-09T05:18:10.691Z,23.00
2023-01-09T05:23:10.664Z,20.80
2023-01-09T05:28:10.558Z,21.30
2023-01-09T05:33:10.556Z,19.60
2023-01-09T05:38:10.438Z,20.50
2023-01-09T05:43:10.504Z,23.10
2023-01-09T05:48:10.300Z,21.30
2023-01-09T05:53:10.267Z,24.10
2023-01-09T05:58:10.193Z,23.10
2023-01-09T06:03:10.199Z,24.00
2023-01-09T06:08:10.076Z,22.20
2023-01-09T06:13:10.304Z,26.40
2023-01-09T06:18:09.940Z,22.10
2023-01-09T06:23:11.218Z,23.30
2023-01-09T06:28:09.799Z,24.00
2023-01-09T06:33:09.748Z,22.00
2023-01-09T06:38:09.665Z,19.50
2023-01-09T06:43:09.978Z,20.30
2023-01-09T06:48:09.539Z,20.10
2023-01-09T06:53:09.464Z,20.00
2023-01-09T06:58:09.422Z,20.40
2023-01-09T07:03:09.343Z,20.50
2023-01-09T07:08:09.274Z,20.50
2023-01-09T07:13:09.240Z,21.10
2023-01-09T07:18:09.135Z,19.00
2023-01-09T07:23:09.129Z,19.20
2023-01-09T07:28:09.023Z,20.10
2023-01-09T07:33:08.939Z,20.60
2023-01-09T07:38:08.888Z,20.50
2023-01-09T07:43:08.852Z,24.40
2023-01-09T07:48:08.787Z,20.70
2023-01-09T07:53:08.748Z,19.60
2023-01-09T07:58:08.641Z,19.80
2023-01-09T08:03:08.606Z,20.90
2023-01-09T08:08:08.545Z,21.50
2023-01-09T08:13:08.521Z,21.00
2023-01-09T08:18:08.340Z,20.00
2023-01-09T08:23:08.279Z,21.20
2023-01-09T08:28:08.223Z,22.30
2023-01-09T08:33:08.148Z,18.10
2023-01-09T08:38:08.105Z,21.50
2023-01-09T08:43:08.040Z,18.70
2023-01-09T08:48:07.994Z,19.30
2023-01-09T08:53:07.908Z,19.30
2023-01-09T08:58:07.845Z,18.10
2023-01-09T09:03:07.836Z,17.40
2023-01-09T09:08:07.705Z,16.30
2023-01-09T09:13:07.665Z,16.10
2023-01-09T09:18:07.585Z,14.00
2023-01-09T09:23:07.542Z,13.80
2023-01-09T09:28:07.460Z,13.70
2023-01-09T09:33:07.392Z,14.50
2023-01-09T09:38:07.337Z,11.70
2023-01-09T09:43:07.271Z,11.80
2023-01-09T09:48:07.173Z,5.70
2023-01-09T09:53:07.129Z,9.10
2023-01-09T09:58:07.038Z,10.40
2023-01-09T10:03:07.042Z,5.20
2023-01-09T10:08:15.393Z,5.10
2023-01-09T10:13:07.843Z,4.70
2023-01-09T10:18:06.798Z,3.50
2023-01-09T10:23:06.824Z,4.80
2023-01-09T10:28:06.684Z,4.70
2023-01-09T10:33:06.602Z,4.10
2023-01-09T10:38:06.596Z,3.50
2023-01-09T10:43:06.507Z,4.60
2023-01-09T10:48:06.400Z,3.30
2023-01-09T10:53:06.347Z,4.70
2023-01-09T10:58:06.317Z,3.60
2023-01-09T11:03:06.325Z,2.40
2023-01-09T11:08:06.145Z,3.60
2023-01-09T11:13:06.167Z,4.10
2023-01-09T11:18:06.016Z,3.30
2023-01-09T11:23:05.984Z,2.30
2023-01-09T11:28:05.895Z,2.90
2023-01-09T11:33:05.828Z,3.00
2023-01-09T11:38:05.791Z,2.40
2023-01-09T11:43:05.708Z,2.80
2023-01-09T11:48:05.633Z,3.00
2023-01-09T11:53:05.568Z,3.00
2023-01-09T11:58:05.500Z,1.80
2023-01-09T12:03:12.440Z,2.50
2023-01-09T12:08:05.360Z,3.30
2023-01-09T12:13:05.297Z,2.70
2023-01-09T12:18:05.252Z,3.80
2023-01-09T12:23:05.198Z,1.60
2023-01-09T12:28:05.117Z,1.80
2023-01-09T12:33:05.026Z,2.50
2023-01-09T12:38:04.934Z,4.10
2023-01-09T12:43:04.903Z,1.50
2023-01-09T12:48:04.876Z,1.50
2023-01-09T12:53:04.800Z,2.20
2023-01-09T12:58:04.729Z,2.10
2023-01-09T13:03:12.425Z,2.30
2023-01-09T13:08:05.565Z,1.60
2023-01-09T13:13:04.541Z,2.00
2023-01-09T13:18:04.453Z,3.00
2023-01-09T13:23:04.519Z,2.90
2023-01-09T13:28:04.320Z,2.10
2023-01-09T13:33:04.227Z,1.70
2023-01-09T13:38:04.207Z,2.20
2023-01-09T13:43:04.177Z,2.10
2023-01-09T13:48:04.025Z,3.20
2023-01-09T13:53:04.028Z,2.50
2023-01-09T13:58:03.898Z,1.00
2023-01-09T14:03:03.824Z,2.50
2023-01-09T14:08:03.830Z,2.10
2023-01-09T14:13:03.688Z,2.40
2023-01-09T14:18:03.713Z,2.20
2023-01-09T14:23:28.055Z,2.50
2023-01-09T14:28:04.513Z,2.90
2023-01-09T14:33:03.420Z,3.00
2023-01-09T14:38:03.405Z,2.90
2023-01-09T14:43:03.316Z,1.50
2023-01-09T14:48:03.206Z,2.70
2023-01-09T14:53:03.145Z,2.20
2023-01-09T14:58:03.118Z,1.80
2023-01-09T15:03:03.035Z,1.00
2023-01-09T15:08:02.943Z,1.40
2023-01-09T15:13:02.906Z,2.20
2023-01-09T15:18:02.895Z,1.80
2023-01-09T15:23:02.751Z,1.90
2023-01-09T15:28:02.748Z,1.80
2023-01-09T15:33:02.654Z,2.60
2023-01-09T15:38:02.563Z,1.40
2023-01-09T15:43:02.524Z,2.30
2023-01-09T15:48:02.453Z,2.60
2023-01-09T15:53:02.428Z,2.20
2023-01-09T15:58:02.384Z,1.70
2023-01-09T16:03:02.267Z,3.40
2023-01-09T16:08:02.186Z,3.20
2023-01-09T16:13:02.160Z,2.70
2023-01-09T16:18:02.037Z,3.20
2023-01-09T16:23:02.040Z,2.80
2023-01-09T16:28:01.961Z,1.40
2023-01-09T16:33:01.862Z,2.10
2023-01-09T16:38:01.781Z,2.60
2023-01-09T16:43:02.001Z,2.20
2023-01-09T16:48:01.705Z,2.20
2023-01-09T16:53:01.639Z,3.30
2023-01-09T16:58:01.552Z,3.80
2023-01-09T17:03:01.487Z,3.50
2023-01-09T17:08:01.414Z,2.60
2023-01-09T17:13:01.353Z,4.20
2023-01-09T17:18:01.262Z,3.60
2023-01-09T17:23:01.219Z,3.30
2023-01-09T17:28:01.180Z,3.30
2023-01-09T17:33:01.104Z,3.20
2023-01-09T17:38:01.163Z,2.50
2023-01-09T17:43:00.968Z,3.50
2023-01-09T17:48:00.952Z,4.30
2023-01-09T17:53:01.018Z,2.60
2023-01-09T17:58:00.788Z,2.90
2023-01-09T18:03:00.684Z,4.40
2023-01-09T18:08:00.677Z,3.70
2023-01-09T18:13:00.596Z,4.30
2023-01-09T18:18:00.513Z,4.10
2023-01-09T18:23:00.417Z,5.10
2023-01-09T18:28:00.420Z,4.50
2023-01-09T18:33:00.313Z,3.60
2023-01-09T18:38:00.245Z,4.00
2023-01-09T18:43:00.181Z,5.50
2023-01-09T18:48:00.107Z,4.70
2023-01-09T18:53:00.166Z,6.60
2023-01-09T18:57:59.995Z,4.00
2023-01-09T19:02:59.900Z,3.70
2023-01-09T19:07:59.830Z,4.70
2023-01-09T19:12:59.874Z,3.70
2023-01-09T19:17:59.751Z,4.90
2023-01-09T19:22:59.659Z,3.70
2023-01-09T19:27:59.605Z,3.60
2023-01-09T19:32:59.516Z,5.10
2023-01-09T19:37:59.486Z,8.60
2023-01-09T19:42:59.538Z,7.70
2023-01-09T19:47:59.377Z,7.20
2023-01-09T19:52:59.267Z,3.70
2023-01-09T19:57:59.222Z,2.90
2023-01-09T20:02:59.464Z,4.00
2023-01-09T20:07:59.052Z,4.60
2023-01-09T20:12:59.062Z,4.30
2023-01-09T20:17:58.964Z,2.60
2023-01-09T20:22:59.029Z,2.50
2023-01-09T20:27:59.260Z,3.30
2023-01-09T20:33:00.216Z,4.50
2023-01-09T20:37:58.679Z,3.20
2023-01-09T20:42:58.635Z,5.10
2023-01-09T20:47:58.537Z,5.50
2023-01-09T20:52:58.505Z,5.20
2023-01-09T20:57:58.395Z,6.70
2023-01-09T21:02:58.339Z,5.70
2023-01-09T21:07:58.378Z,5.40
2023-01-09T21:12:58.190Z,5.10
2023-01-09T21:17:58.119Z,4.60
2023-01-09T21:22:58.102Z,5.40
2023-01-09T21:27:58.067Z,5.60
2023-01-09T21:32:57.933Z,4.50
2023-01-09T21:37:57.916Z,3.20
2023-01-09T21:42:57.952Z,2.90
2023-01-09T21:47:58.720Z,3.10
2023-01-09T21:52:57.876Z,4.50
2023-01-09T21:57:57.810Z,2.80
2023-01-09T22:02:57.561Z,3.30
2023-01-09T22:07:57.558Z,2.00
2023-01-09T22:12:57.494Z,2.90
2023-01-09T22:17:57.397Z,2.60
2023-01-09T22:22:57.310Z,1.50
2023-01-09T22:27:57.222Z,1.60
2023-01-09T22:32:57.166Z,2.50
2023-01-09T22:37:57.068Z,2.20
2023-01-09T22:42:57.001Z,2.20
2023-01-09T22:47:56.955Z,1.90
2023-01-09T22:52:56.899Z,2.20
2023-01-09T22:57:56.842Z,1.60
2023-01-09T23:02:56.846Z,2.30
2023-01-09T23:07:56.704Z,1.30
2023-01-09T23:12:56.654Z,2.70
2023-01-09T23:17:56.568Z,1.90
2023-01-09T23:22:58.885Z,3.30
2023-01-09T23:27:56.457Z,2.40
2023-01-09T23:32:56.390Z,2.10
2023-01-09T23:37:56.333Z,3.30
2023-01-09T23:42:56.236Z,2.90
2023-01-09T23:47:56.157Z,2.60
2023-01-09T23:52:56.098Z,3.30
2023-01-09T23:57:56.059Z,2.20
